Osceola, Arkansas
Current Conditions -  °F | °C
As of 11:53 AM on Saturday 25 Oct 2014 (Local Time) from KHKA Reporting Station
Clear Clear  
Wind Chill: 79°   Ceiling: Unl
Heat Index: 81°   Visibility: 10mi
Dew Point: 63°   Wind: 7mph
Humidity: 58%   Direction: 290°WNW
Pressure: 30.07"   Gusts: NA
Location:  35.71°N, 89.97°W
Report Text: KHKA 251653Z AUTO 29006KT 10SM CLR 26/17 A3007 RMK AO2 SLP179 T02610172
Loading
Personal Weather Stations






























Interactive Weather Map New forecast layout! Learn more

10-Day Weather Forecast

Advertisements
Track Severe Weather on mobile